createdAt,value
2022-08-17T00:00:43.158Z,9.83
2022-08-17T00:03:03.024Z,10.20
2022-08-17T00:05:30.658Z,9.80
2022-08-17T00:07:58.713Z,9.00
2022-08-17T00:10:25.914Z,10.93
2022-08-17T00:12:52.804Z,9.00
2022-08-17T00:15:20.902Z,9.27
2022-08-17T00:17:50.930Z,8.23
2022-08-17T00:20:17.822Z,8.90
2022-08-17T00:22:46.882Z,8.77
2022-08-17T00:25:15.337Z,8.47
2022-08-17T00:27:42.104Z,10.13
2022-08-17T00:30:09.943Z,8.80
2022-08-17T00:33:13.602Z,8.63
2022-08-17T00:35:25.388Z,10.33
2022-08-17T00:37:52.254Z,10.37
2022-08-17T00:40:19.204Z,11.17
2022-08-17T00:42:46.101Z,10.47
2022-08-17T00:45:13.470Z,10.00
2022-08-17T00:47:40.284Z,10.13
2022-08-17T00:50:09.806Z,10.97
2022-08-17T00:52:37.547Z,10.63
2022-08-17T00:55:04.368Z,10.47
2022-08-17T00:57:32.168Z,9.67
2022-08-17T01:00:03.800Z,9.43
2022-08-17T01:02:43.004Z,9.70
2022-08-17T01:05:15.166Z,10.50
2022-08-17T01:07:42.064Z,9.63
2022-08-17T01:10:08.839Z,8.90
2022-08-17T01:12:56.831Z,9.57
2022-08-17T01:15:23.521Z,8.83
2022-08-17T01:17:50.275Z,8.53
2022-08-17T01:20:17.061Z,9.77
2022-08-17T01:22:43.818Z,7.63
2022-08-17T01:27:54.705Z,9.20
2022-08-17T01:30:58.855Z,8.47
2022-08-17T01:33:11.573Z,10.10
2022-08-17T01:35:38.867Z,9.20
2022-08-17T01:38:05.822Z,9.10
2022-08-17T01:40:39.850Z,8.47
2022-08-17T01:43:23.260Z,7.73
2022-08-17T01:46:03.559Z,8.83
2022-08-17T01:48:31.619Z,8.17
2022-08-17T01:50:58.328Z,8.47
2022-08-17T01:53:26.791Z,8.47
2022-08-17T01:55:55.242Z,7.60
2022-08-17T01:58:22.024Z,7.77
2022-08-17T02:01:00.001Z,7.83
2022-08-17T02:03:28.473Z,7.63
2022-08-17T02:05:55.270Z,7.10
2022-08-17T02:08:22.804Z,7.23
2022-08-17T02:11:11.329Z,7.27
2022-08-17T02:13:38.168Z,7.30
2022-08-17T02:16:04.934Z,8.40
2022-08-17T02:18:31.647Z,7.43
2022-08-17T02:20:58.495Z,6.77
2022-08-17T02:23:25.547Z,7.17
2022-08-17T02:25:52.338Z,7.53
2022-08-17T02:28:19.241Z,8.13
2022-08-17T02:31:01.331Z,8.50
2022-08-17T02:33:42.091Z,8.03
2022-08-17T02:36:10.596Z,7.80
2022-08-17T02:38:39.904Z,7.53
2022-08-17T02:41:07.384Z,7.60
2022-08-17T02:43:35.226Z,7.27
2022-08-17T02:46:02.477Z,7.37
2022-08-17T02:48:31.564Z,9.27
2022-08-17T02:51:27.752Z,8.00
2022-08-17T02:57:37.871Z,9.20
2022-08-17T03:00:32.126Z,9.00
2022-08-17T03:03:45.358Z,10.40
2022-08-17T03:06:16.774Z,10.70
2022-08-17T03:08:43.485Z,8.77
2022-08-17T03:11:10.613Z,8.70
2022-08-17T03:13:37.539Z,9.70
2022-08-17T03:16:04.333Z,9.57
2022-08-17T03:18:31.098Z,8.87
2022-08-17T03:20:58.860Z,9.70
2022-08-17T03:23:25.798Z,8.83
2022-08-17T03:25:52.924Z,9.80
2022-08-17T03:28:19.977Z,9.90
2022-08-17T03:30:46.648Z,9.00
2022-08-17T03:33:13.430Z,7.97
2022-08-17T03:35:40.670Z,9.27
2022-08-17T03:38:08.042Z,8.80
2022-08-17T03:40:58.020Z,8.93
2022-08-17T03:46:34.458Z,8.10
2022-08-17T03:49:22.236Z,8.00
2022-08-17T03:52:07.690Z,8.20
2022-08-17T03:54:52.888Z,8.60
2022-08-17T03:57:19.813Z,8.80
2022-08-17T03:59:46.611Z,8.47
2022-08-17T04:02:24.741Z,9.10
2022-08-17T04:04:52.410Z,8.30
2022-08-17T04:07:24.050Z,7.93
2022-08-17T04:09:50.938Z,7.93
2022-08-17T04:12:18.563Z,7.80
2022-08-17T04:14:53.619Z,7.17
2022-08-17T04:20:06.472Z,8.73
2022-08-17T04:25:18.039Z,7.47
2022-08-17T04:27:44.908Z,7.70
2022-08-17T04:30:12.785Z,8.37
2022-08-17T04:33:04.504Z,8.30
2022-08-17T04:35:43.389Z,8.93
2022-08-17T04:38:11.299Z,9.40
2022-08-17T04:40:56.642Z,8.70
2022-08-17T04:43:23.759Z,8.47
2022-08-17T04:45:55.469Z,9.63
2022-08-17T04:48:23.569Z,9.77
2022-08-17T04:50:56.782Z,10.73
2022-08-17T04:53:23.638Z,10.67
2022-08-17T04:55:51.759Z,11.60
2022-08-17T04:58:18.468Z,13.83
2022-08-17T05:03:29.387Z,13.63
2022-08-17T05:05:56.137Z,12.57
2022-08-17T05:08:23.211Z,12.30
2022-08-17T05:10:50.189Z,12.93
2022-08-17T05:13:17.997Z,12.57
2022-08-17T05:15:45.311Z,11.47
2022-08-17T05:18:14.962Z,11.00
2022-08-17T05:20:41.860Z,10.93
2022-08-17T05:23:09.604Z,11.70
2022-08-17T05:25:38.843Z,11.30
2022-08-17T05:28:06.083Z,11.50
2022-08-17T05:30:33.242Z,12.60
2022-08-17T05:33:05.346Z,12.97
2022-08-17T05:35:32.711Z,13.03
2022-08-17T05:37:59.449Z,12.40
2022-08-17T05:40:26.347Z,13.07
2022-08-17T05:43:11.880Z,13.20
2022-08-17T05:45:55.400Z,12.27
2022-08-17T05:48:35.536Z,11.77
2022-08-17T05:51:48.658Z,11.50
2022-08-17T05:54:18.253Z,13.13
2022-08-17T05:56:45.016Z,13.33
2022-08-17T05:59:16.632Z,12.63
2022-08-17T06:01:52.720Z,12.93
2022-08-17T06:04:32.001Z,12.50
2022-08-17T06:07:22.678Z,11.83
2022-08-17T06:09:51.199Z,12.43
2022-08-17T06:12:37.372Z,11.73
2022-08-17T06:17:48.522Z,10.73
2022-08-17T06:20:16.728Z,12.30
2022-08-17T06:22:47.905Z,10.97
2022-08-17T06:25:14.918Z,10.20
2022-08-17T06:27:43.120Z,9.90
2022-08-17T06:37:52.146Z,8.50
2022-08-17T06:44:51.283Z,7.93
2022-08-17T06:52:12.607Z,7.63
2022-08-17T06:55:02.203Z,6.90
2022-08-17T06:57:30.170Z,6.93
2022-08-17T06:59:58.933Z,6.53
2022-08-17T07:02:51.288Z,6.73
2022-08-17T07:05:20.823Z,6.60
2022-08-17T07:08:14.812Z,6.50
2022-08-17T07:10:51.547Z,6.20
2022-08-17T07:13:18.344Z,5.87
2022-08-17T07:15:45.313Z,5.90
2022-08-17T07:18:12.623Z,5.63
2022-08-17T07:20:41.231Z,5.73
2022-08-17T07:25:53.557Z,5.77
2022-08-17T07:28:23.741Z,6.10
2022-08-17T07:30:52.017Z,5.60
2022-08-17T07:33:20.442Z,6.03
2022-08-17T07:35:48.501Z,5.10
2022-08-17T07:38:24.842Z,5.00
2022-08-17T07:41:03.891Z,5.17
2022-08-17T07:43:36.815Z,5.80
2022-08-17T07:49:11.393Z,5.10
2022-08-17T07:54:30.510Z,5.37
2022-08-17T07:57:01.567Z,5.30
2022-08-17T07:59:33.452Z,5.13
2022-08-17T08:05:01.041Z,4.97
2022-08-17T08:07:32.077Z,5.30
2022-08-17T08:09:58.897Z,4.80
2022-08-17T08:12:25.682Z,5.40
2022-08-17T08:15:00.371Z,5.20
2022-08-17T08:17:34.323Z,5.27
2022-08-17T08:20:01.291Z,4.90
2022-08-17T08:22:54.234Z,5.43
2022-08-17T08:25:49.699Z,5.47
2022-08-17T08:28:29.281Z,5.37
2022-08-17T08:31:14.421Z,5.30
2022-08-17T08:33:55.054Z,5.10
2022-08-17T08:36:56.634Z,5.73
2022-08-17T08:39:22.218Z,5.93
2022-08-17T08:42:07.732Z,5.53
2022-08-17T08:44:59.535Z,5.60
2022-08-17T08:47:46.249Z,5.40
2022-08-17T08:50:37.377Z,5.40
2022-08-17T08:56:02.290Z,5.40
2022-08-17T08:58:44.598Z,5.60
2022-08-17T09:01:20.732Z,5.30
2022-08-17T09:04:06.713Z,5.20
2022-08-17T09:06:46.666Z,5.90
2022-08-17T09:09:29.341Z,5.30
2022-08-17T09:12:05.573Z,5.47
2022-08-17T09:14:45.049Z,5.00
2022-08-17T09:17:19.475Z,5.47
2022-08-17T09:19:48.556Z,5.73
2022-08-17T09:22:26.839Z,5.77
2022-08-17T09:24:57.599Z,5.37
2022-08-17T09:27:29.437Z,5.50
2022-08-17T09:29:58.302Z,6.10
2022-08-17T09:32:28.543Z,6.17
2022-08-17T09:34:57.167Z,5.60
2022-08-17T09:37:43.965Z,5.73
2022-08-17T09:40:16.131Z,5.53
2022-08-17T09:42:45.906Z,5.67
2022-08-17T09:45:24.220Z,5.30
2022-08-17T09:47:56.252Z,6.03
2022-08-17T09:51:03.508Z,6.17
2022-08-17T09:53:11.225Z,6.07
2022-08-17T09:55:58.008Z,5.97
2022-08-17T09:58:29.172Z,5.80
2022-08-17T10:01:02.112Z,6.07
2022-08-17T10:06:22.191Z,5.93
2022-08-17T10:09:03.367Z,6.13
2022-08-17T10:11:54.575Z,6.30
2022-08-17T10:14:37.054Z,5.80
2022-08-17T10:17:29.432Z,6.07
2022-08-17T10:20:00.067Z,6.37
2022-08-17T10:22:52.676Z,5.33
2022-08-17T10:28:40.927Z,5.07
2022-08-17T10:33:57.603Z,5.70
2022-08-17T10:39:13.620Z,5.73
2022-08-17T10:41:41.836Z,5.63
2022-08-17T10:44:37.117Z,5.60
2022-08-17T10:47:06.658Z,5.67
2022-08-17T10:49:34.901Z,6.13
2022-08-17T10:52:03.222Z,5.60
2022-08-17T10:54:36.785Z,5.90
2022-08-17T10:57:05.272Z,5.77
2022-08-17T10:59:36.373Z,6.83
2022-08-17T11:02:03.350Z,6.03
2022-08-17T11:05:12.016Z,6.10
2022-08-17T11:15:58.858Z,6.50
2022-08-17T11:18:53.617Z,6.60
2022-08-17T11:21:30.093Z,7.07
2022-08-17T11:23:57.532Z,7.07
2022-08-17T11:26:26.976Z,6.73
2022-08-17T11:31:44.572Z,7.77
2022-08-17T11:34:17.814Z,7.63
2022-08-17T11:37:03.699Z,7.27
2022-08-17T11:42:28.683Z,7.17
2022-08-17T11:45:32.108Z,6.97
2022-08-17T11:48:29.329Z,7.33
2022-08-17T11:51:30.521Z,6.93
2022-08-17T11:54:31.874Z,6.60
2022-08-17T11:56:57.062Z,7.53
2022-08-17T11:59:32.990Z,6.90
2022-08-17T12:02:20.508Z,7.17
2022-08-17T12:05:02.179Z,7.20
2022-08-17T12:07:30.346Z,6.87
2022-08-17T12:09:57.572Z,6.50
2022-08-17T12:12:29.908Z,6.70
2022-08-17T12:15:10.071Z,6.27
2022-08-17T12:17:40.814Z,7.30
2022-08-17T12:20:15.757Z,6.30
2022-08-17T12:22:45.727Z,6.73
2022-08-17T12:25:20.540Z,6.53
2022-08-17T12:28:04.559Z,6.63
2022-08-17T12:30:38.265Z,6.43
2022-08-17T12:33:11.133Z,6.77
2022-08-17T12:35:39.413Z,6.67
2022-08-17T12:38:32.198Z,6.30
2022-08-17T12:43:41.564Z,6.33
2022-08-17T12:46:13.460Z,6.30
2022-08-17T12:48:59.074Z,6.30
2022-08-17T12:51:31.806Z,5.63
2022-08-17T12:53:59.807Z,6.27
2022-08-17T12:56:29.686Z,6.50
2022-08-17T12:58:57.938Z,5.67
2022-08-17T13:01:25.805Z,5.20
2022-08-17T13:03:55.317Z,5.30
2022-08-17T13:06:43.223Z,5.20
2022-08-17T13:09:11.473Z,5.50
2022-08-17T13:11:46.741Z,5.27
2022-08-17T13:14:16.668Z,5.33
2022-08-17T13:19:40.336Z,5.23
2022-08-17T13:22:10.104Z,4.60
2022-08-17T13:24:37.932Z,5.00
2022-08-17T13:27:07.930Z,5.57
2022-08-17T13:29:36.631Z,5.30
2022-08-17T13:32:13.333Z,4.97
2022-08-17T13:37:33.260Z,5.30
2022-08-17T13:40:00.209Z,5.30
2022-08-17T13:42:29.806Z,6.17
2022-08-17T13:44:56.696Z,6.30
2022-08-17T13:50:19.465Z,5.80
2022-08-17T13:52:51.407Z,5.87
2022-08-17T13:55:19.694Z,5.37
2022-08-17T14:00:35.683Z,5.70
2022-08-17T14:03:02.992Z,5.90
2022-08-17T14:05:29.987Z,5.30
2022-08-17T14:07:58.239Z,5.50
2022-08-17T14:13:09.731Z,5.90
2022-08-17T14:18:35.751Z,5.20
2022-08-17T14:23:55.147Z,5.70
2022-08-17T14:29:14.988Z,5.10
2022-08-17T14:34:29.531Z,5.10
2022-08-17T14:36:57.290Z,5.37
2022-08-17T14:39:24.111Z,5.50
2022-08-17T14:41:51.047Z,5.60
2022-08-17T14:44:18.624Z,5.43
2022-08-17T14:46:45.435Z,5.60
2022-08-17T14:49:13.940Z,5.00
2022-08-17T14:54:34.103Z,5.60
2022-08-17T14:57:22.431Z,5.63
2022-08-17T14:59:51.766Z,5.50
2022-08-17T15:02:29.276Z,5.87
2022-08-17T15:05:01.902Z,5.73
2022-08-17T15:07:30.456Z,5.90
2022-08-17T15:09:58.832Z,6.00
2022-08-17T15:12:32.400Z,6.30
2022-08-17T15:17:47.751Z,6.40
2022-08-17T15:23:09.661Z,6.50
2022-08-17T15:25:36.646Z,6.03
2022-08-17T15:28:03.580Z,7.47
2022-08-17T15:30:30.598Z,6.17
2022-08-17T15:32:58.410Z,6.93
2022-08-17T15:35:29.118Z,6.33
2022-08-17T15:38:06.498Z,6.70
2022-08-17T15:40:37.563Z,7.50
2022-08-17T15:43:08.138Z,7.00
2022-08-17T15:45:35.694Z,7.50
2022-08-17T15:48:02.517Z,7.00
2022-08-17T15:50:29.624Z,6.37
2022-08-17T15:52:58.806Z,6.90
2022-08-17T15:55:26.353Z,6.33
2022-08-17T15:57:53.959Z,6.67
2022-08-17T16:00:24.304Z,6.93
2022-08-17T16:03:43.436Z,6.60
2022-08-17T16:05:38.545Z,6.53
2022-08-17T16:08:07.934Z,6.50
2022-08-17T16:10:35.971Z,7.90
2022-08-17T16:13:03.332Z,6.33
2022-08-17T16:15:32.045Z,6.97
2022-08-17T16:17:59.191Z,6.40
2022-08-17T16:20:26.390Z,7.23
2022-08-17T16:22:54.261Z,6.57
2022-08-17T16:25:23.592Z,6.80
2022-08-17T16:28:10.652Z,6.50
2022-08-17T16:30:38.797Z,6.83
2022-08-17T16:33:05.626Z,7.23
2022-08-17T16:35:32.462Z,7.23
2022-08-17T16:37:59.411Z,7.43
2022-08-17T16:40:28.511Z,7.73
2022-08-17T16:42:55.586Z,7.33
2022-08-17T16:45:28.692Z,7.37
2022-08-17T16:50:43.479Z,7.40
2022-08-17T16:53:30.290Z,6.83
2022-08-17T16:55:57.381Z,6.90
2022-08-17T16:58:24.224Z,7.80
2022-08-17T17:00:51.091Z,7.37
2022-08-17T17:03:20.651Z,7.77
2022-08-17T17:08:56.056Z,8.30
2022-08-17T17:11:25.947Z,8.50
2022-08-17T17:13:54.966Z,8.17
2022-08-17T17:16:34.096Z,8.53
2022-08-17T17:19:04.844Z,7.43
2022-08-17T17:21:44.601Z,6.73
2022-08-17T17:24:14.341Z,7.10
2022-08-17T17:26:48.981Z,7.57
2022-08-17T17:29:16.467Z,7.20
2022-08-17T17:31:46.441Z,7.83
2022-08-17T17:34:13.944Z,7.07
2022-08-17T17:36:42.199Z,7.40
2022-08-17T17:39:13.705Z,7.20
2022-08-17T17:41:57.496Z,8.23
2022-08-17T17:44:25.278Z,7.30
2022-08-17T17:46:54.268Z,8.37
2022-08-17T17:49:21.207Z,8.27
2022-08-17T17:52:06.835Z,8.00
2022-08-17T17:54:55.364Z,8.80
2022-08-17T17:57:42.275Z,9.13
2022-08-17T18:00:13.836Z,8.47
2022-08-17T18:02:53.254Z,9.13
2022-08-17T18:05:46.239Z,8.87
2022-08-17T18:08:19.515Z,9.57
2022-08-17T18:10:49.081Z,9.87
2022-08-17T18:13:35.619Z,9.27
2022-08-17T18:16:03.739Z,9.03
2022-08-17T18:18:37.889Z,10.00
2022-08-17T18:21:19.498Z,9.87
2022-08-17T18:23:47.758Z,9.80
2022-08-17T18:26:17.248Z,9.40
2022-08-17T18:28:44.293Z,8.80
2022-08-17T18:31:20.856Z,9.40
2022-08-17T18:33:48.949Z,9.37
2022-08-17T18:39:21.220Z,8.73
2022-08-17T18:44:38.200Z,8.57
2022-08-17T18:49:57.734Z,9.73
2022-08-17T18:55:17.414Z,9.77
2022-08-17T18:57:45.410Z,9.77
2022-08-17T19:00:32.488Z,10.67
2022-08-17T19:03:03.788Z,10.93
2022-08-17T19:05:35.949Z,10.47
2022-08-17T19:08:18.346Z,10.03
2022-08-17T19:10:47.037Z,9.60
2022-08-17T19:13:24.151Z,9.57
2022-08-17T19:18:46.157Z,9.47
2022-08-17T19:24:05.908Z,9.83
2022-08-17T19:29:22.372Z,11.43
2022-08-17T19:31:49.917Z,11.87
2022-08-17T19:34:16.790Z,13.17
2022-08-17T19:40:05.753Z,12.00
2022-08-17T19:45:24.323Z,12.63
2022-08-17T19:51:18.001Z,10.97
2022-08-17T19:54:04.922Z,12.37
2022-08-17T19:56:36.443Z,13.20
2022-08-17T20:01:52.855Z,12.90
2022-08-17T20:07:20.186Z,15.33
2022-08-17T20:09:52.266Z,15.97
2022-08-17T20:12:27.190Z,12.43
2022-08-17T20:14:59.072Z,14.43
2022-08-17T20:17:28.368Z,14.30
2022-08-17T20:23:08.275Z,15.70
2022-08-17T20:28:28.159Z,14.93
2022-08-17T20:33:39.322Z,16.90
2022-08-17T20:39:03.610Z,20.33
2022-08-17T20:44:14.999Z,16.53
2022-08-17T20:46:46.568Z,21.40
2022-08-17T20:49:14.720Z,16.60
2022-08-17T20:51:54.544Z,17.43
2022-08-17T20:54:42.689Z,18.33
2022-08-17T20:57:13.826Z,21.30
2022-08-17T20:59:45.059Z,20.53
2022-08-17T21:02:17.580Z,26.50
2022-08-17T21:04:47.379Z,19.80
2022-08-17T21:10:26.087Z,18.47
2022-08-17T21:13:02.687Z,20.63
2022-08-17T21:15:48.725Z,28.50
2022-08-17T21:21:26.168Z,28.63
2022-08-17T21:24:02.994Z,23.73
2022-08-17T21:26:50.286Z,22.30
2022-08-17T21:29:32.531Z,22.73
2022-08-17T21:32:03.435Z,21.03
2022-08-17T21:34:34.200Z,24.97
2022-08-17T21:37:19.728Z,22.30
2022-08-17T21:39:56.411Z,21.43
2022-08-17T21:42:24.875Z,20.90
2022-08-17T21:44:52.206Z,21.13
2022-08-17T21:50:19.865Z,24.77
2022-08-17T21:55:31.897Z,29.00
2022-08-17T21:58:13.727Z,28.87
2022-08-17T22:00:43.458Z,28.07
2022-08-17T22:03:10.243Z,24.17
2022-08-17T22:05:37.878Z,27.67
2022-08-17T22:08:08.826Z,25.70
2022-08-17T22:10:44.851Z,24.87
2022-08-17T22:13:16.392Z,25.13
2022-08-17T22:15:48.173Z,27.73
2022-08-17T22:18:20.030Z,25.10
2022-08-17T22:20:50.840Z,24.00
2022-08-17T22:23:49.982Z,25.60
2022-08-17T22:26:17.391Z,23.77
2022-08-17T22:28:49.168Z,22.80
2022-08-17T22:31:16.925Z,20.40
2022-08-17T22:33:44.809Z,21.07
2022-08-17T22:36:14.801Z,21.50
2022-08-17T22:38:42.072Z,21.90
2022-08-17T22:41:31.838Z,23.70
2022-08-17T22:44:02.466Z,24.20
2022-08-17T22:46:29.343Z,24.87
2022-08-17T22:48:56.850Z,25.93
2022-08-17T22:51:24.967Z,24.53
2022-08-17T22:54:11.183Z,24.67
2022-08-17T22:56:56.452Z,23.70
2022-08-17T22:59:43.711Z,21.97
2022-08-17T23:02:11.707Z,16.77
2022-08-17T23:04:39.439Z,23.73
2022-08-17T23:09:51.536Z,20.80
2022-08-17T23:15:11.663Z,18.67
2022-08-17T23:17:38.612Z,21.10
2022-08-17T23:20:06.613Z,19.20
2022-08-17T23:22:33.445Z,21.00
2022-08-17T23:25:00.223Z,22.90
2022-08-17T23:27:29.454Z,14.03
2022-08-17T23:29:56.262Z,23.57
2022-08-17T23:32:23.028Z,20.13
2022-08-17T23:34:50.871Z,19.57
2022-08-17T23:37:18.405Z,20.33
2022-08-17T23:39:45.273Z,16.40
2022-08-17T23:42:12.756Z,14.93
2022-08-17T23:44:39.974Z,19.27
2022-08-17T23:49:54.246Z,19.50
2022-08-17T23:52:22.858Z,19.93
2022-08-17T23:54:49.558Z,18.67
2022-08-17T23:57:20.055Z,17.73
